Time;durP1;ratioP1;P1;durP2;ratioP2;P2;SDS_P1;SDS_P2;PMS_P1;PMS_P2;Temp;Humidity;BMP_temperature;BMP_pressure;BME280_temperature;BME280_humidity;BME280_pressure;Samples;Min_cycle;Max_cycle;Signal;HPM_P1;HPM_P2
2023/08/31 00:02:06;;;;;;;3.20;1.20;;;;;;;19.22;65.98;94067.91;4994393;28;20610;-74
2023/08/31 00:04:33;;;;;;;3.92;1.60;;;;;;;19.15;65.91;94058.50;4994446;28;20216;-73
2023/08/31 00:07:00;;;;;;;2.67;1.50;;;;;;;19.23;65.83;94069.47;4994205;28;20206;-73
2023/08/31 00:09:27;;;;;;;3.13;1.63;;;;;;;19.21;66.21;94069.88;4994497;28;20757;-73
2023/08/31 00:11:54;;;;;;;2.95;1.63;;;;;;;19.20;66.22;94064.78;4993971;28;20205;-73
2023/08/31 00:14:22;;;;;;;3.05;1.50;;;;;;;19.20;66.89;94073.78;4993658;28;20229;-73
2023/08/31 00:16:50;;;;;;;5.05;1.63;;;;;;;19.16;67.27;94073.00;4993805;28;20241;-73
2023/08/31 00:19:17;;;;;;;3.17;1.60;;;;;;;19.09;68.16;94073.03;4993671;28;20346;-73
2023/08/31 00:21:44;;;;;;;3.92;1.33;;;;;;;19.05;68.08;94075.78;4976418;28;20663;-73
2023/08/31 00:24:11;;;;;;;5.47;1.60;;;;;;;19.07;68.62;94073.44;4993702;28;20205;-73
2023/08/31 00:26:40;;;;;;;4.10;1.92;;;;;;;18.96;69.94;94067.19;4993812;28;20206;-73
2023/08/31 00:29:07;;;;;;;4.82;1.67;;;;;;;18.86;69.32;94059.72;4994064;28;20209;-75
2023/08/31 00:31:34;;;;;;;5.88;1.20;;;;;;;18.82;69.53;94072.69;4993737;28;20206;-73
2023/08/31 00:34:04;;;;;;;3.28;1.30;;;;;;;18.77;69.46;94071.09;4994082;28;20219;-72
2023/08/31 00:36:31;;;;;;;3.35;1.60;;;;;;;18.71;69.66;94083.69;4993675;28;20273;-74
2023/08/31 00:38:58;;;;;;;2.83;1.38;;;;;;;18.72;69.70;94085.22;4993839;28;20226;-74
2023/08/31 00:41:25;;;;;;;7.13;1.63;;;;;;;18.74;69.49;94082.09;4993475;28;20232;-74
2023/08/31 00:43:52;;;;;;;3.60;1.67;;;;;;;18.56;69.97;94081.28;4993626;28;20213;-74
2023/08/31 00:46:19;;;;;;;6.05;1.65;;;;;;;18.50;69.70;94088.31;4993247;28;20202;-74
2023/08/31 00:48:46;;;;;;;3.85;1.33;;;;;;;18.57;69.54;94091.09;4993501;28;20202;-74
2023/08/31 00:51:15;;;;;;;2.05;1.38;;;;;;;18.47;70.09;94096.16;4993560;28;20617;-74
2023/08/31 00:53:42;;;;;;;5.40;1.75;;;;;;;18.55;69.88;94085.19;4993419;28;20210;-74
2023/08/31 00:56:09;;;;;;;3.20;1.50;;;;;;;18.60;69.50;94090.31;4993367;28;20241;-75
2023/08/31 00:58:36;;;;;;;4.55;1.77;;;;;;;18.69;68.94;94082.50;4993311;28;20233;-74
2023/08/31 01:01:12;;;;;;;3.85;1.48;;;;;;;18.77;68.69;94082.09;4993359;28;20564;-74
2023/08/31 01:03:44;;;;;;;2.03;1.20;;;;;;;18.94;68.07;94096.19;4993497;28;20601;-74
2023/08/31 01:06:22;;;;;;;2.20;1.27;;;;;;;18.91;68.46;94092.28;4992970;28;20225;-74
2023/08/31 01:08:57;;;;;;;3.42;1.40;;;;;;;18.89;68.17;94094.63;4993243;28;20590;-74
2023/08/31 01:11:33;;;;;;;2.75;1.20;;;;;;;18.84;68.43;94102.47;4992960;28;20200;-74
2023/08/31 01:14:04;;;;;;;7.03;1.60;;;;;;;18.88;68.39;94098.53;4992951;28;20225;-75
2023/08/31 01:16:34;;;;;;;1.45;1.15;;;;;;;18.95;68.31;94093.06;4992662;28;20339;-74
2023/08/31 01:19:05;;;;;;;3.63;1.27;;;;;;;18.99;68.50;94102.09;4993198;28;20547;-74
2023/08/31 01:21:38;;;;;;;3.55;1.20;;;;;;;18.99;68.84;94104.84;4992606;28;20654;-74
2023/08/31 01:24:07;;;;;;;4.47;1.58;;;;;;;19.00;68.41;94100.88;4993334;28;20217;-76
2023/08/31 01:26:34;;;;;;;2.97;1.20;;;;;;;18.95;68.52;94104.03;4992269;28;20732;-76
2023/08/31 01:29:01;;;;;;;4.90;1.60;;;;;;;18.92;68.58;94110.31;4993074;28;20198;-76
2023/08/31 01:31:29;;;;;;;2.85;1.20;;;;;;;18.95;68.67;94104.03;4992905;28;20209;-76
2023/08/31 01:33:55;;;;;;;3.42;1.63;;;;;;;18.86;69.20;94100.88;4993246;28;20209;-76
2023/08/31 01:36:27;;;;;;;2.55;1.17;;;;;;;18.81;68.96;94098.56;4992895;28;20224;-76
2023/08/31 01:39:03;;;;;;;2.80;1.30;;;;;;;18.83;69.12;94096.22;4993031;28;20214;-76
2023/08/31 01:41:35;;;;;;;5.40;1.67;;;;;;;18.79;68.96;94100.91;4992787;28;20535;-76
2023/08/31 01:44:02;;;;;;;1.95;1.38;;;;;;;18.77;69.56;94103.25;4992765;28;20186;-75
2023/08/31 01:46:30;;;;;;;5.15;1.35;;;;;;;18.63;69.49;94104.03;4992231;28;20237;-75
2023/08/31 01:48:57;;;;;;;3.13;1.30;;;;;;;18.56;69.73;94092.25;4992443;28;20202;-75
2023/08/31 01:51:24;;;;;;;4.45;1.58;;;;;;;18.59;69.49;94086.00;4992183;28;20212;-75
2023/08/31 01:53:51;;;;;;;3.17;1.33;;;;;;;18.57;69.27;94093.84;4992366;28;20252;-75
2023/08/31 01:56:18;;;;;;;2.70;1.35;;;;;;;18.55;69.71;94096.19;4992389;28;20264;-75
2023/08/31 01:58:46;;;;;;;7.50;1.63;;;;;;;18.58;69.79;94100.88;4992498;28;20636;-75
2023/08/31 02:01:13;;;;;;;4.05;1.30;;;;;;;18.56;69.18;94104.03;4992340;28;20569;-76
2023/08/31 02:03:40;;;;;;;3.33;1.35;;;;;;;18.53;69.95;94104.78;4992501;28;20592;-75
2023/08/31 02:06:06;;;;;;;4.00;1.38;;;;;;;18.38;71.30;94111.44;4992532;28;20542;-76
2023/08/31 02:08:33;;;;;;;3.83;1.40;;;;;;;18.23;71.67;94118.06;4992466;28;20663;-75
2023/08/31 02:11:00;;;;;;;4.07;1.30;;;;;;;18.17;71.47;94109.44;4992192;28;20210;-75
2023/08/31 02:13:28;;;;;;;2.25;1.02;;;;;;;18.22;71.50;94125.50;4991932;28;20450;-75
2023/08/31 02:15:56;;;;;;;2.55;1.30;;;;;;;18.23;71.85;94129.81;4992008;28;20244;-75
2023/08/31 02:18:23;;;;;;;4.78;1.50;;;;;;;18.24;71.40;94128.63;4991869;28;20283;-75
2023/08/31 02:20:53;;;;;;;6.15;1.55;;;;;;;18.23;71.63;94124.31;4992056;28;20201;-75
2023/08/31 02:23:20;;;;;;;4.68;1.73;;;;;;;18.23;71.81;94127.06;4991886;28;20237;-75
2023/08/31 02:25:46;;;;;;;5.05;1.80;;;;;;;18.24;71.91;94123.16;4992360;28;20571;-75
2023/08/31 02:28:13;;;;;;;4.38;1.58;;;;;;;18.18;72.54;94127.44;4992296;28;20580;-75
2023/08/31 02:30:40;;;;;;;2.88;1.27;;;;;;;18.10;73.21;94123.91;4992168;28;20201;-75
2023/08/31 02:33:09;;;;;;;4.65;1.70;;;;;;;18.07;73.43;94121.94;4992037;28;20209;-75
2023/08/31 02:35:36;;;;;;;6.40;1.60;;;;;;;18.00;73.42;94110.97;4991529;28;20201;-75
2023/08/31 02:38:02;;;;;;;3.70;1.52;;;;;;;17.99;73.79;94111.34;4992028;28;20302;-75
2023/08/31 02:40:29;;;;;;;3.15;1.58;;;;;;;17.95;73.93;94124.25;4991726;28;20512;-75
2023/08/31 02:42:56;;;;;;;2.28;1.30;;;;;;;17.86;74.56;94119.13;4992074;28;20550;-75
2023/08/31 02:45:23;;;;;;;4.55;1.60;;;;;;;17.79;74.58;94121.84;4991836;28;20695;-75
2023/08/31 02:47:50;;;;;;;2.17;1.60;;;;;;;17.60;75.52;94128.41;4991440;28;20232;-75
2023/08/31 02:50:18;;;;;;;4.70;1.30;;;;;;;17.62;75.19;94123.31;4991247;28;20248;-76
2023/08/31 02:52:45;;;;;;;3.55;1.63;;;;;;;17.57;75.27;94118.19;4991832;28;20272;-76
2023/08/31 02:55:12;;;;;;;2.00;1.50;;;;;;;17.60;75.49;94114.69;4991788;28;20209;-75
2023/08/31 02:57:38;;;;;;;3.38;1.83;;;;;;;17.60;75.52;94120.19;4991683;28;20217;-76
2023/08/31 03:00:10;;;;;;;2.88;1.50;;;;;;;17.64;75.31;94131.94;4991801;28;20278;-75
2023/08/31 03:02:37;;;;;;;3.45;1.50;;;;;;;17.44;75.93;94138.88;4991714;28;20182;-76
2023/08/31 03:05:05;;;;;;;1.90;1.33;;;;;;;17.45;75.98;94137.69;4991528;28;20209;-75
2023/08/31 03:07:33;;;;;;;3.38;1.67;;;;;;;17.55;74.99;94147.91;4991504;28;20297;-75
2023/08/31 03:09:59;;;;;;;3.55;1.40;;;;;;;17.62;74.96;94150.72;4991544;28;20697;-75
2023/08/31 03:12:26;;;;;;;3.47;1.55;;;;;;;17.63;75.14;94152.28;4991346;28;20209;-75
2023/08/31 03:14:53;;;;;;;3.88;1.25;;;;;;;17.56;75.00;94135.00;4991455;28;20302;-75
2023/08/31 03:17:20;;;;;;;3.83;1.65;;;;;;;17.53;75.65;94153.00;4991215;28;20237;-75
2023/08/31 03:19:46;;;;;;;3.92;1.83;;;;;;;17.45;76.21;94156.88;4991575;28;20700;-75
2023/08/31 03:22:13;;;;;;;3.10;1.63;;;;;;;17.32;76.72;94148.19;4991303;28;20214;-75
2023/08/31 03:24:41;;;;;;;2.92;1.40;;;;;;;16.97;78.04;94159.66;4991453;28;20667;-75
2023/08/31 03:27:08;;;;;;;5.18;1.98;;;;;;;17.05;77.51;94149.56;4991353;28;20210;-76
2023/08/31 03:29:35;;;;;;;4.75;1.70;;;;;;;17.10;77.57;94151.16;4991110;28;20206;-76
2023/08/31 03:32:02;;;;;;;3.08;1.73;;;;;;;17.13;78.11;94139.44;4991333;28;20205;-75
2023/08/31 03:34:30;;;;;;;2.67;1.33;;;;;;;17.18;77.93;94139.09;4991228;28;20268;-75
2023/08/31 03:36:57;;;;;;;2.72;1.35;;;;;;;17.16;78.19;94149.63;4991434;28;20206;-75
2023/08/31 03:39:24;;;;;;;4.20;1.40;;;;;;;17.16;78.31;94144.94;4990675;28;20292;-76
2023/08/31 03:41:52;;;;;;;4.07;2.15;;;;;;;17.09;78.60;94155.03;4991323;28;20260;-76
2023/08/31 03:44:21;;;;;;;6.13;2.33;;;;;;;17.16;78.32;94153.16;4991135;28;20210;-75
2023/08/31 03:46:47;;;;;;;8.27;2.47;;;;;;;17.20;77.78;94148.50;4991006;28;20210;-76
2023/08/31 03:49:14;;;;;;;3.38;1.48;;;;;;;17.20;77.73;94153.19;4992704;28;20754;-76
2023/08/31 03:51:41;;;;;;;1.95;1.27;;;;;;;17.12;77.89;94166.03;4994265;28;20288;-76
2023/08/31 03:54:08;;;;;;;4.32;1.60;;;;;;;17.12;77.83;94170.72;4994846;28;20217;-76
2023/08/31 03:56:34;;;;;;;3.85;1.50;;;;;;;17.08;78.33;94170.72;4994435;28;20213;-76
2023/08/31 03:59:04;;;;;;;7.15;1.95;;;;;;;17.13;78.91;94178.56;4994388;28;20209;-77
2023/08/31 04:01:31;;;;;;;4.53;1.98;;;;;;;17.20;78.99;94183.31;4994044;28;20296;-77
2023/08/31 04:03:58;;;;;;;4.75;1.98;;;;;;;17.19;79.49;94179.00;4994658;28;20205;-77
2023/08/31 04:06:24;;;;;;;4.40;1.67;;;;;;;17.18;80.02;94188.38;4994160;28;20574;-76
2023/08/31 04:08:51;;;;;;;5.90;1.83;;;;;;;17.30;79.38;94193.53;4994440;28;20737;-77
2023/08/31 04:11:18;;;;;;;8.63;2.08;;;;;;;17.79;78.30;94200.50;4994121;28;20260;-76
2023/08/31 04:13:45;;;;;;;4.40;2.20;;;;;;;18.47;76.01;94203.13;4994221;28;20226;-77
2023/08/31 04:16:13;;;;;;;3.47;1.95;;;;;;;19.01;73.19;94208.72;4994167;28;20643;-77
2023/08/31 04:18:40;;;;;;;2.97;1.88;;;;;;;19.34;71.26;94196.59;4993896;28;20265;-77
2023/08/31 04:21:07;;;;;;;5.13;1.92;;;;;;;19.26;71.29;94215.03;4993731;28;20237;-78
2023/08/31 04:23:34;;;;;;;8.48;2.30;;;;;;;19.60;70.89;94220.91;4994108;28;20210;-77
2023/08/31 04:26:01;;;;;;;6.32;2.40;;;;;;;19.95;69.44;94213.78;4994112;28;20238;-77
2023/08/31 04:28:27;;;;;;;7.82;2.13;;;;;;;20.96;67.03;94210.97;4993996;28;20228;-77
2023/08/31 04:30:54;;;;;;;5.85;2.60;;;;;;;22.02;63.55;94202.97;4994200;28;20598;-78
2023/08/31 04:33:23;;;;;;;4.07;2.00;;;;;;;22.78;60.22;94205.22;4993873;28;20208;-76
2023/08/31 04:35:49;;;;;;;6.93;1.77;;;;;;;22.63;59.80;94204.63;4994270;28;20633;-77
2023/08/31 04:38:16;;;;;;;5.28;2.45;;;;;;;22.57;60.98;94211.78;4994166;28;20617;-77
2023/08/31 04:40:44;;;;;;;7.35;2.40;;;;;;;22.39;59.93;94211.25;4993509;28;20225;-78
2023/08/31 04:43:11;;;;;;;8.55;2.90;;;;;;;21.77;61.65;94215.03;4994102;28;20635;-77
2023/08/31 04:45:38;;;;;;;5.68;2.55;;;;;;;21.97;61.05;94221.53;4993518;28;20329;-78
2023/08/31 04:48:05;;;;;;;13.20;2.67;;;;;;;22.62;59.71;94219.63;4993657;28;20206;-77
2023/08/31 04:50:33;;;;;;;5.13;2.22;;;;;;;22.77;59.35;94213.94;4993158;28;20287;-76
2023/08/31 04:53:00;;;;;;;7.18;2.20;;;;;;;22.55;60.03;94225.22;4993703;28;20206;-77
2023/08/31 04:55:27;;;;;;;6.05;2.28;;;;;;;22.45;59.73;94209.56;4993283;28;20216;-77
2023/08/31 04:57:54;;;;;;;10.73;2.22;;;;;;;22.77;58.83;94225.75;4993622;28;20205;-77
2023/08/31 05:00:20;;;;;;;5.38;2.00;;;;;;;23.42;57.15;94220.06;4992407;28;20252;-77
2023/08/31 05:02:47;;;;;;;3.97;1.90;;;;;;;24.60;54.38;94217.53;4993700;28;20552;-78
2023/08/31 05:05:14;;;;;;;7.13;2.13;;;;;;;25.91;50.83;94210.97;4993679;28;20602;-79
2023/08/31 05:07:43;;;;;;;5.70;2.05;;;;;;;26.90;48.30;94207.44;4993319;28;20713;-77
2023/08/31 05:10:11;;;;;;;9.52;2.25;;;;;;;27.20;46.47;94208.91;4993428;28;20214;-77
2023/08/31 05:12:38;;;;;;;6.45;2.30;;;;;;;27.51;45.97;94207.13;4993074;28;20742;-77
2023/08/31 05:15:05;;;;;;;7.63;1.92;;;;;;;28.43;43.66;94210.88;4993364;28;20209;-78
2023/08/31 05:17:32;;;;;;;9.13;2.30;;;;;;;28.69;42.03;94209.50;4992614;28;20233;-77
2023/08/31 05:19:59;;;;;;;4.40;2.08;;;;;;;28.75;41.94;94213.25;4993149;28;20229;-78
2023/08/31 05:22:26;;;;;;;9.77;2.72;;;;;;;28.75;41.66;94210.47;4992657;28;20208;-76
2023/08/31 05:24:54;;;;;;;8.13;2.40;;;;;;;29.63;40.26;94214.66;4993212;28;20312;-76
2023/08/31 05:27:20;;;;;;;6.22;2.70;;;;;;;30.08;39.36;94213.22;4993164;28;20629;-76
2023/08/31 05:29:47;;;;;;;7.30;3.00;;;;;;;29.47;39.22;94212.13;4992751;28;20256;-76
2023/08/31 05:32:14;;;;;;;7.85;2.15;;;;;;;30.26;37.96;94216.03;4993085;28;20638;-76
2023/08/31 05:34:41;;;;;;;8.68;2.70;;;;;;;29.77;38.87;94213.31;4992687;28;20213;-76
2023/08/31 05:37:08;;;;;;;9.70;2.40;;;;;;;30.12;38.15;94208.25;4992558;28;20209;-76
2023/08/31 05:39:35;;;;;;;4.75;2.15;;;;;;;30.22;38.14;94206.25;4992592;28;20566;-76
2023/08/31 05:42:04;;;;;;;4.65;2.22;;;;;;;29.94;37.70;94211.00;4992414;28;20210;-77
2023/08/31 05:44:30;;;;;;;7.32;2.58;;;;;;;30.43;37.26;94212.94;4992692;28;20533;-76
2023/08/31 05:46:57;;;;;;;6.75;2.10;;;;;;;30.76;35.89;94213.88;4992640;28;20622;-76
2023/08/31 05:49:24;;;;;;;7.05;1.90;;;;;;;31.30;35.41;94201.00;4992727;28;20590;-75
2023/08/31 05:51:51;;;;;;;8.85;2.35;;;;;;;31.08;34.80;94207.59;4992306;28;20209;-77
2023/08/31 05:54:18;;;;;;;4.72;2.00;;;;;;;29.98;36.67;94222.84;4992409;28;20302;-76
2023/08/31 05:56:46;;;;;;;11.45;2.70;;;;;;;29.75;37.51;94220.59;4992422;28;20236;-76
2023/08/31 05:59:14;;;;;;;5.22;2.00;;;;;;;29.96;37.90;94219.69;4992685;28;20209;-77
2023/08/31 06:01:41;;;;;;;8.02;2.40;;;;;;;29.82;38.14;94221.06;4992160;28;20225;-78
2023/08/31 06:04:08;;;;;;;6.82;2.10;;;;;;;29.38;38.45;94214.88;4992491;28;20663;-77
2023/08/31 06:06:35;;;;;;;5.03;2.03;;;;;;;29.87;37.72;94222.47;4992338;28;20546;-77
2023/08/31 06:09:02;;;;;;;8.45;2.10;;;;;;;29.11;38.27;94237.06;4992364;28;20216;-77
2023/08/31 06:11:28;;;;;;;5.18;1.70;;;;;;;29.14;39.06;94227.75;4991881;28;20252;-77
2023/08/31 06:13:55;;;;;;;4.40;2.00;;;;;;;29.61;38.18;94233.88;4992411;28;20230;-77
2023/08/31 06:16:24;;;;;;;7.05;2.63;;;;;;;28.92;39.75;94236.94;4991983;28;20241;-77
2023/08/31 06:18:51;;;;;;;5.88;2.38;;;;;;;29.55;38.57;94246.09;4991825;28;20305;-77
2023/08/31 06:21:18;;;;;;;5.55;2.28;;;;;;;29.45;38.67;94242.50;4992293;28;20225;-78
2023/08/31 06:23:45;;;;;;;5.88;2.10;;;;;;;30.12;37.20;94239.00;4991878;28;20292;-77
2023/08/31 06:26:11;;;;;;;5.47;2.25;;;;;;;29.84;38.13;94245.75;4992003;28;20523;-77
2023/08/31 06:28:39;;;;;;;4.38;1.90;;;;;;;29.33;38.55;94246.16;4991587;28;20206;-78
2023/08/31 06:31:05;;;;;;;6.88;2.15;;;;;;;30.35;36.57;94251.59;4992346;28;20202;-78
2023/08/31 06:33:33;;;;;;;4.00;2.45;;;;;;;31.09;35.71;94242.75;4991549;28;20283;-78
2023/08/31 06:36:00;;;;;;;10.15;1.95;;;;;;;30.72;36.47;94249.63;4991955;28;20217;-77
2023/08/31 06:38:27;;;;;;;6.30;2.15;;;;;;;31.90;34.95;94253.38;4991589;28;20550;-77
2023/08/31 06:40:58;;;;;;;7.55;2.00;;;;;;;30.89;35.72;94255.69;4991960;28;20225;-77
2023/08/31 06:43:26;;;;;;;4.97;2.10;;;;;;;31.34;35.53;94255.59;4991517;28;20193;-77
2023/08/31 06:45:53;;;;;;;5.20;2.20;;;;;;;32.08;34.30;94253.28;4991918;28;20663;-77
2023/08/31 06:48:20;;;;;;;4.10;2.03;;;;;;;32.59;32.87;94260.75;4991484;28;20686;-76
2023/08/31 06:50:49;;;;;;;5.40;2.15;;;;;;;32.90;32.62;94255.53;4991856;28;20284;-77
2023/08/31 06:53:16;;;;;;;7.63;2.50;;;;;;;33.12;32.67;94255.94;4991650;28;20224;-78
2023/08/31 06:55:42;;;;;;;4.47;2.15;;;;;;;32.60;33.27;94265.88;4991709;28;20206;-76
2023/08/31 06:58:09;;;;;;;6.78;2.20;;;;;;;31.91;34.29;94263.34;4991434;28;20205;-76
2023/08/31 07:00:36;;;;;;;9.10;2.65;;;;;;;31.36;34.13;94266.34;4991490;28;20686;-76
2023/08/31 07:03:05;;;;;;;6.65;2.58;;;;;;;31.57;34.41;94259.72;4991511;28;20209;-76
2023/08/31 07:05:35;;;;;;;7.53;2.70;;;;;;;28.42;38.98;94271.41;4991757;28;20217;-76
2023/08/31 07:08:03;;;;;;;5.45;2.70;;;;;;;28.92;39.14;94278.00;4991704;28;20210;-77
2023/08/31 07:10:30;;;;;;;4.47;2.33;;;;;;;29.00;38.91;94273.69;4991456;28;20292;-76
2023/08/31 07:12:57;;;;;;;6.63;2.72;;;;;;;30.80;35.53;94267.66;4991561;28;20226;-77
2023/08/31 07:15:23;;;;;;;6.53;2.08;;;;;;;30.95;35.23;94271.38;4991730;28;20268;-77
2023/08/31 07:17:50;;;;;;;8.50;2.60;;;;;;;31.72;34.45;94259.84;4991181;28;20197;-76
2023/08/31 07:20:17;;;;;;;5.40;2.20;;;;;;;31.44;35.27;94270.34;4991210;28;20202;-78
2023/08/31 07:22:44;;;;;;;5.90;2.78;;;;;;;30.27;37.23;94284.69;4991052;28;20205;-78
2023/08/31 07:25:12;;;;;;;4.53;2.47;;;;;;;29.26;38.24;94282.69;4994664;28;20276;-76
2023/08/31 07:27:39;;;;;;;6.72;2.45;;;;;;;28.52;39.95;94286.19;4994737;28;20304;-76
2023/08/31 07:30:07;;;;;;;9.05;3.20;;;;;;;26.90;43.08;94280.50;4995055;28;20225;-76
2023/08/31 07:32:34;;;;;;;7.53;3.33;;;;;;;26.84;43.47;94282.25;4994934;28;20202;-76
2023/08/31 07:35:00;;;;;;;8.93;3.20;;;;;;;27.10;42.48;94282.34;4995135;28;20218;-78
2023/08/31 07:37:27;;;;;;;9.02;3.08;;;;;;;26.30;44.31;94270.28;4994870;28;20209;-77
2023/08/31 07:39:54;;;;;;;6.15;3.08;;;;;;;27.24;43.11;94276.38;4995389;28;20209;-78
2023/08/31 07:42:22;;;;;;;4.28;2.42;;;;;;;27.14;42.46;94280.25;4995055;28;20233;-78
2023/08/31 07:44:49;;;;;;;6.57;2.92;;;;;;;27.60;41.74;94287.22;4994545;28;20213;-78
2023/08/31 07:47:16;;;;;;;7.88;2.47;;;;;;;27.56;41.27;94287.31;4994773;28;20213;-78
2023/08/31 07:49:44;;;;;;;7.68;2.33;;;;;;;28.43;39.61;94297.25;4994765;28;20221;-76
2023/08/31 07:52:10;;;;;;;3.05;1.20;;;;;;;27.44;38.96;94282.50;4994903;28;20518;-77
2023/08/31 07:54:37;;;;;;;4.32;1.60;;;;;;;26.47;41.70;94291.25;4994215;28;20209;-76
2023/08/31 07:57:04;;;;;;;3.95;2.00;;;;;;;26.85;41.48;94283.81;4994396;28;20205;-76
2023/08/31 07:59:32;;;;;;;5.25;2.13;;;;;;;26.25;41.62;94281.88;4994403;28;20221;-76
2023/08/31 08:01:59;;;;;;;3.22;1.27;;;;;;;26.74;41.66;94286.13;4994175;28;20221;-75
2023/08/31 08:04:27;;;;;;;5.20;1.90;;;;;;;27.03;39.89;94286.13;4994368;28;20210;-78
2023/08/31 08:06:54;;;;;;;5.38;1.58;;;;;;;27.13;39.21;94281.47;4994174;28;20235;-74
2023/08/31 08:09:20;;;;;;;5.90;1.73;;;;;;;27.05;39.33;94286.47;4994553;28;20539;-78
2023/08/31 08:11:47;;;;;;;4.20;2.13;;;;;;;26.88;39.09;94296.84;4994233;28;20663;-76
2023/08/31 08:14:15;;;;;;;5.45;2.55;;;;;;;27.21;38.02;94296.72;4994050;28;20241;-76
2023/08/31 08:16:44;;;;;;;7.47;2.53;;;;;;;27.46;37.86;94293.97;4993989;28;20706;-76
2023/08/31 08:19:10;;;;;;;4.55;2.60;;;;;;;27.89;37.50;94287.06;4994350;28;20678;-77
2023/08/31 08:21:37;;;;;;;8.98;2.60;;;;;;;28.13;37.22;94290.28;4994180;28;20756;-76
2023/08/31 08:24:04;;;;;;;7.05;3.25;;;;;;;27.32;36.88;94293.63;4994211;28;20605;-76
2023/08/31 08:26:31;;;;;;;8.55;4.60;;;;;;;27.69;35.28;94294.91;4993812;28;20572;-75
2023/08/31 08:28:58;;;;;;;7.13;4.72;;;;;;;28.19;33.20;94283.72;4993854;28;20761;-76
2023/08/31 08:31:25;;;;;;;6.60;4.30;;;;;;;28.54;33.87;94286.50;4994148;28;20213;-76
2023/08/31 08:33:53;;;;;;;7.88;3.92;;;;;;;28.26;33.90;94277.13;4993924;28;20601;-77
2023/08/31 08:36:20;;;;;;;7.30;3.83;;;;;;;28.25;35.39;94281.13;4993984;28;20213;-77
2023/08/31 08:38:46;;;;;;;5.38;3.63;;;;;;;28.43;34.57;94280.53;4993340;28;20291;-76
2023/08/31 08:41:17;;;;;;;5.72;3.53;;;;;;;28.42;34.67;94279.75;4993793;28;20591;-76
2023/08/31 08:43:44;;;;;;;11.73;3.70;;;;;;;28.44;35.37;94287.63;4993833;28;20281;-76
2023/08/31 08:46:11;;;;;;;6.80;3.50;;;;;;;27.98;35.30;94289.97;4993704;28;20205;-76
2023/08/31 08:48:40;;;;;;;7.10;3.60;;;;;;;28.32;35.43;94280.88;4993386;28;20582;-76
2023/08/31 08:51:08;;;;;;;6.93;3.47;;;;;;;27.94;35.26;94289.31;4993700;28;20201;-77
2023/08/31 08:53:37;;;;;;;4.07;3.17;;;;;;;27.95;35.37;94286.06;4993498;28;20206;-78
2023/08/31 08:56:05;;;;;;;5.97;3.22;;;;;;;28.38;36.03;94273.53;4993819;28;20300;-78
2023/08/31 08:58:31;;;;;;;10.07;3.78;;;;;;;28.30;35.67;94278.53;4993581;28;20580;-77
2023/08/31 09:00:58;;;;;;;8.02;3.90;;;;;;;28.16;35.41;94279.00;4993357;28;20280;-76
2023/08/31 09:03:25;;;;;;;6.00;3.70;;;;;;;28.40;35.02;94275.88;4993939;28;20593;-76
2023/08/31 09:05:52;;;;;;;6.05;3.45;;;;;;;27.65;33.41;94283.09;4993262;28;20220;-75
2023/08/31 09:08:27;;;;;;;5.90;3.80;;;;;;;26.98;35.40;94280.31;4993153;28;20268;-78
2023/08/31 09:10:57;;;;;;;6.93;3.70;;;;;;;28.06;34.74;94274.56;4993204;28;20206;-76
2023/08/31 09:13:28;;;;;;;11.27;3.75;;;;;;;27.32;35.73;94283.28;4993413;28;20671;-77
2023/08/31 09:15:56;;;;;;;7.03;3.40;;;;;;;26.64;36.40;94278.88;4992874;28;20237;-77
2023/08/31 09:18:25;;;;;;;5.63;2.78;;;;;;;26.29;37.09;94283.38;4993220;28;20271;-75
2023/08/31 09:20:53;;;;;;;6.03;3.80;;;;;;;26.26;37.13;94286.22;4992960;28;20272;-76
2023/08/31 09:23:22;;;;;;;5.88;3.38;;;;;;;25.95;37.72;94288.63;4992937;28;20202;-78
2023/08/31 09:25:50;;;;;;;7.40;3.30;;;;;;;25.64;39.21;94293.72;4993050;28;20280;-75
2023/08/31 09:28:19;;;;;;;7.63;3.50;;;;;;;25.95;38.96;94289.41;4993128;28;20662;-77
2023/08/31 09:30:47;;;;;;;5.75;3.75;;;;;;;25.86;39.46;94286.44;4992683;28;20224;-77
2023/08/31 09:33:17;;;;;;;6.38;4.20;;;;;;;25.52;39.59;94300.69;4992928;28;20307;-76
2023/08/31 09:35:49;;;;;;;9.25;3.78;;;;;;;26.04;38.96;94294.31;4992556;28;20296;-77
2023/08/31 09:38:16;;;;;;;4.47;2.80;;;;;;;26.32;37.54;94276.97;4992794;28;20233;-76
2023/08/31 09:40:44;;;;;;;4.60;3.30;;;;;;;26.67;36.60;94275.19;4992884;28;20305;-76
2023/08/31 09:43:11;;;;;;;10.50;3.53;;;;;;;27.22;35.48;94268.47;4992491;28;20206;-76
2023/08/31 09:45:39;;;;;;;5.40;3.28;;;;;;;27.25;34.37;94283.47;4992565;28;20543;-76
2023/08/31 09:48:06;;;;;;;10.75;3.70;;;;;;;27.48;34.78;94274.03;4992517;28;20210;-76
2023/08/31 09:50:35;;;;;;;6.80;3.58;;;;;;;27.23;35.55;94270.00;4992582;28;20229;-77
2023/08/31 09:53:03;;;;;;;6.45;4.65;;;;;;;27.42;34.64;94276.59;4992578;28;20268;-76
2023/08/31 09:55:31;;;;;;;6.25;3.47;;;;;;;27.80;33.85;94262.69;4992549;28;20250;-76
2023/08/31 09:58:01;;;;;;;5.07;3.63;;;;;;;28.33;34.12;94259.38;4992062;28;20217;-77
2023/08/31 10:00:30;;;;;;;4.88;3.33;;;;;;;28.47;34.42;94265.22;4992476;28;20209;-76
2023/08/31 10:03:01;;;;;;;8.45;3.20;;;;;;;29.04;32.84;94262.41;4991922;28;20288;-76
2023/08/31 10:05:28;;;;;;;7.03;2.95;;;;;;;29.29;33.18;94265.81;4992320;28;20186;-77
2023/08/31 10:07:55;;;;;;;4.90;3.15;;;;;;;29.05;32.75;94258.41;4992508;28;20218;-76
2023/08/31 10:10:22;;;;;;;6.63;3.78;;;;;;;28.13;34.66;94266.00;4992227;28;20267;-76
2023/08/31 10:12:51;;;;;;;5.90;3.60;;;;;;;28.08;35.12;94272.13;4991543;28;20249;-76
2023/08/31 10:15:20;;;;;;;6.20;3.00;;;;;;;27.92;34.20;94269.47;4992014;28;20257;-77
2023/08/31 10:17:47;;;;;;;6.63;3.90;;;;;;;27.44;34.60;94268.59;4991760;28;20202;-75
2023/08/31 10:20:17;;;;;;;7.95;4.03;;;;;;;27.47;34.74;94253.78;4992135;28;20209;-77
2023/08/31 10:22:44;;;;;;;5.55;3.65;;;;;;;27.23;34.24;94266.47;4991570;28;20229;-76
2023/08/31 10:25:11;;;;;;;7.00;3.85;;;;;;;27.25;34.50;94264.00;4991727;28;20206;-76
2023/08/31 10:27:40;;;;;;;8.13;3.78;;;;;;;27.03;34.28;94272.22;4991476;28;20229;-76
2023/08/31 10:30:25;;;;;;;8.57;3.97;;;;;;;27.15;34.78;94267.91;4991926;28;20252;-76
2023/08/31 10:33:22;;;;;;;8.82;3.78;;;;;;;26.61;35.78;94268.63;4992035;28;20225;-76
2023/08/31 10:35:53;;;;;;;9.23;3.85;;;;;;;26.95;35.02;94264.50;4991606;28;20205;-76
2023/08/31 10:38:28;;;;;;;5.60;3.60;;;;;;;26.99;34.73;94271.53;4991727;28;20210;-76
2023/08/31 10:41:21;;;;;;;5.25;3.63;;;;;;;27.19;34.79;94274.16;4991729;28;20581;-77
2023/08/31 10:43:50;;;;;;;5.18;3.10;;;;;;;26.99;35.39;94285.44;4991447;28;20201;-76
2023/08/31 10:46:28;;;;;;;5.53;3.53;;;;;;;27.00;34.84;94283.44;4991516;28;20304;-76
2023/08/31 10:48:57;;;;;;;6.38;3.45;;;;;;;26.90;34.90;94282.50;4991680;28;20611;-75
2023/08/31 10:51:29;;;;;;;5.38;3.70;;;;;;;27.20;34.85;94270.13;4991932;28;20216;-77
2023/08/31 10:54:07;;;;;;;8.40;3.92;;;;;;;27.62;34.88;94275.63;4991595;28;20853;-76
2023/08/31 10:56:34;;;;;;;5.82;3.40;;;;;;;27.69;33.40;94275.41;4991603;28;20220;-76
2023/08/31 10:59:02;;;;;;;6.90;3.17;;;;;;;27.81;33.16;94271.81;4992952;28;20256;-76
2023/08/31 11:01:53;;;;;;;7.63;3.40;;;;;;;28.03;32.96;94281.03;4996299;28;20229;-76
2023/08/31 11:04:23;;;;;;;5.55;3.10;;;;;;;27.47;33.42;94267.69;4988381;28;20297;-76
2023/08/31 11:06:50;;;;;;;9.20;3.28;;;;;;;27.93;33.70;94282.16;4995803;28;20271;-77
2023/08/31 11:09:22;;;;;;;9.02;3.42;;;;;;;28.21;33.24;94277.69;4995622;28;20255;-77
2023/08/31 11:11:49;;;;;;;9.57;3.65;;;;;;;28.34;32.84;94277.66;4995531;28;20256;-77
2023/08/31 11:14:16;;;;;;;5.18;3.33;;;;;;;28.62;32.68;94271.84;4995408;28;20765;-77
2023/08/31 11:16:45;;;;;;;6.68;3.38;;;;;;;28.90;32.86;94283.25;4995140;28;20332;-77
2023/08/31 11:19:12;;;;;;;5.88;3.55;;;;;;;28.02;34.67;94289.88;4995258;28;20288;-77
2023/08/31 11:21:40;;;;;;;5.72;3.42;;;;;;;27.96;35.11;94289.63;4994883;28;20291;-77
2023/08/31 11:24:08;;;;;;;4.95;3.28;;;;;;;27.74;35.43;94286.00;4995229;28;20201;-76
2023/08/31 11:26:35;;;;;;;6.05;3.45;;;;;;;27.60;35.76;94281.66;4995528;28;20213;-76
2023/08/31 11:29:02;;;;;;;5.93;3.38;;;;;;;27.71;35.46;94287.66;4994964;28;20209;-77
2023/08/31 11:31:29;;;;;;;5.15;2.85;;;;;;;28.03;35.12;94286.59;4995090;28;20209;-75
2023/08/31 11:33:56;;;;;;;7.07;3.50;;;;;;;28.48;34.56;94279.94;4995095;28;20716;-77
2023/08/31 11:36:25;;;;;;;4.30;2.83;;;;;;;28.32;34.54;94274.53;4995403;28;20634;-76
2023/08/31 11:38:53;;;;;;;5.55;2.45;;;;;;;27.88;34.99;94282.75;4994769;28;20217;-77